Salt Lake City, Utah
Traffic Map
Current Weather Conditions
Salt Lake City, Utah
Scattered Clouds
Scattered Clouds
40°
Feels Like: 34°
Wind Chill: 34° Ceiling: Unl
Heat Index: 40° Visibility: 10mi
Dew Point: 22° Wind: 8mph
Humidity: 49% Direction: 260° (W)
Pressure: 30.4in Gusts: 0mph
Raw Report DataKSLC 242253Z 26007KT 10SM SCT060 04/M06 A3040 RMK AO2 SLP299 T00441056
Traffic Incident Summary
Active as of:
Severity:
Category:
InformationThere was an issue retrieving the traffic information for this location. Please try a different location or try again shortly.
Advertisements
Track Severe Weather on mobile